sensor_id;sensor_type;location;lat;lon;timestamp;temperature;humidity
22069;DHT22;13887;57.196;-2.100;2022-12-01T00:01:08;7.17;89.40
22069;DHT22;13887;57.196;-2.100;2022-12-01T00:03:35;7.19;89.28
22069;DHT22;13887;57.196;-2.100;2022-12-01T00:06:06;7.18;89.36
22069;DHT22;13887;57.196;-2.100;2022-12-01T00:08:33;7.17;89.36
22069;DHT22;13887;57.196;-2.100;2022-12-01T00:11:08;7.17;89.44
22069;DHT22;13887;57.196;-2.100;2022-12-01T00:13:36;7.18;89.34
22069;DHT22;13887;57.196;-2.100;2022-12-01T00:16:11;7.19;89.31
22069;DHT22;13887;57.196;-2.100;2022-12-01T00:18:38;7.20;89.31
22069;DHT22;13887;57.196;-2.100;2022-12-01T00:21:05;7.22;89.31
22069;DHT22;13887;57.196;-2.100;2022-12-01T00:23:32;7.19;89.43
22069;DHT22;13887;57.196;-2.100;2022-12-01T00:26:03;7.20;89.38
22069;DHT22;13887;57.196;-2.100;2022-12-01T00:28:31;7.18;89.44
22069;DHT22;13887;57.196;-2.100;2022-12-01T00:30:57;7.23;89.36
22069;DHT22;13887;57.196;-2.100;2022-12-01T00:33:25;7.23;89.38
22069;DHT22;13887;57.196;-2.100;2022-12-01T00:35:58;7.22;89.50
22069;DHT22;13887;57.196;-2.100;2022-12-01T00:38:26;7.22;89.55
22069;DHT22;13887;57.196;-2.100;2022-12-01T00:40:53;7.23;89.52
22069;DHT22;13887;57.196;-2.100;2022-12-01T00:43:20;7.19;89.67
22069;DHT22;13887;57.196;-2.100;2022-12-01T00:45:47;7.20;89.66
22069;DHT22;13887;57.196;-2.100;2022-12-01T00:48:14;7.20;89.66
22069;DHT22;13887;57.196;-2.100;2022-12-01T00:50:41;7.23;89.63
22069;DHT22;13887;57.196;-2.100;2022-12-01T00:53:08;7.23;89.65
22069;DHT22;13887;57.196;-2.100;2022-12-01T00:55:35;7.23;89.63
22069;DHT22;13887;57.196;-2.100;2022-12-01T00:58:02;7.24;89.60
22069;DHT22;13887;57.196;-2.100;2022-12-01T01:00:28;7.25;89.50
22069;DHT22;13887;57.196;-2.100;2022-12-01T01:02:55;7.26;89.48
22069;DHT22;13887;57.196;-2.100;2022-12-01T01:05:22;7.26;89.60
22069;DHT22;13887;57.196;-2.100;2022-12-01T01:07:49;7.26;89.56
22069;DHT22;13887;57.196;-2.100;2022-12-01T01:10:16;7.25;89.62
22069;DHT22;13887;57.196;-2.100;2022-12-01T01:12:43;7.25;89.60
22069;DHT22;13887;57.196;-2.100;2022-12-01T01:15:10;7.26;89.63
22069;DHT22;13887;57.196;-2.100;2022-12-01T01:17:37;7.25;89.69
22069;DHT22;13887;57.196;-2.100;2022-12-01T01:20:04;7.26;89.64
22069;DHT22;13887;57.196;-2.100;2022-12-01T01:22:33;7.26;89.70
22069;DHT22;13887;57.196;-2.100;2022-12-01T01:25:00;7.30;89.48
22069;DHT22;13887;57.196;-2.100;2022-12-01T01:27:27;7.29;89.50
22069;DHT22;13887;57.196;-2.100;2022-12-01T01:29:54;7.28;89.63
22069;DHT22;13887;57.196;-2.100;2022-12-01T01:32:21;7.29;89.63
22069;DHT22;13887;57.196;-2.100;2022-12-01T01:34:47;7.30;89.70
22069;DHT22;13887;57.196;-2.100;2022-12-01T01:37:14;7.29;89.70
22069;DHT22;13887;57.196;-2.100;2022-12-01T01:39:41;7.32;89.61
22069;DHT22;13887;57.196;-2.100;2022-12-01T01:42:12;7.30;89.70
22069;DHT22;13887;57.196;-2.100;2022-12-01T01:44:56;7.31;89.83
22069;DHT22;13887;57.196;-2.100;2022-12-01T01:47:30;7.30;89.83
22069;DHT22;13887;57.196;-2.100;2022-12-01T01:50:02;7.31;89.87
22069;DHT22;13887;57.196;-2.100;2022-12-01T01:52:35;7.32;89.90
22069;DHT22;13887;57.196;-2.100;2022-12-01T01:55:04;7.33;89.92
22069;DHT22;13887;57.196;-2.100;2022-12-01T01:57:32;7.30;89.92
22069;DHT22;13887;57.196;-2.100;2022-12-01T02:00:15;7.31;89.99
22069;DHT22;13887;57.196;-2.100;2022-12-01T02:02:44;7.31;89.97
22069;DHT22;13887;57.196;-2.100;2022-12-01T02:05:16;7.29;90.05
22069;DHT22;13887;57.196;-2.100;2022-12-01T02:07:45;7.30;90.02
22069;DHT22;13887;57.196;-2.100;2022-12-01T02:10:13;7.31;90.09
22069;DHT22;13887;57.196;-2.100;2022-12-01T02:15:55;7.30;90.31
22069;DHT22;13887;57.196;-2.100;2022-12-01T02:37:48;7.31;90.15
22069;DHT22;13887;57.196;-2.100;2022-12-01T02:40:32;7.31;90.17
22069;DHT22;13887;57.196;-2.100;2022-12-01T02:43:29;7.32;90.13
22069;DHT22;13887;57.196;-2.100;2022-12-01T02:46:23;7.33;90.05
22069;DHT22;13887;57.196;-2.100;2022-12-01T02:48:55;7.32;90.03
22069;DHT22;13887;57.196;-2.100;2022-12-01T02:51:27;7.33;90.09
22069;DHT22;13887;57.196;-2.100;2022-12-01T02:53:57;7.32;90.11
22069;DHT22;13887;57.196;-2.100;2022-12-01T02:56:25;7.32;90.11
22069;DHT22;13887;57.196;-2.100;2022-12-01T02:58:52;7.33;89.99
22069;DHT22;13887;57.196;-2.100;2022-12-01T03:13:18;7.34;89.97
22069;DHT22;13887;57.196;-2.100;2022-12-01T03:18:33;7.35;89.92
22069;DHT22;13887;57.196;-2.100;2022-12-01T03:23:46;7.33;89.97
22069;DHT22;13887;57.196;-2.100;2022-12-01T03:26:17;7.33;89.91
22069;DHT22;13887;57.196;-2.100;2022-12-01T03:28:53;7.32;89.98
22069;DHT22;13887;57.196;-2.100;2022-12-01T03:31:30;7.33;89.91
22069;DHT22;13887;57.196;-2.100;2022-12-01T03:34:03;7.33;89.89
22069;DHT22;13887;57.196;-2.100;2022-12-01T03:36:44;7.34;89.88
22069;DHT22;13887;57.196;-2.100;2022-12-01T03:39:17;7.34;89.84
22069;DHT22;13887;57.196;-2.100;2022-12-01T03:42:01;7.33;89.81
22069;DHT22;13887;57.196;-2.100;2022-12-01T03:44:34;7.33;89.91
22069;DHT22;13887;57.196;-2.100;2022-12-01T03:47:08;7.35;89.86
22069;DHT22;13887;57.196;-2.100;2022-12-01T03:49:37;7.32;89.89
22069;DHT22;13887;57.196;-2.100;2022-12-01T03:52:24;7.34;89.88
22069;DHT22;13887;57.196;-2.100;2022-12-01T03:54:58;7.35;89.83
22069;DHT22;13887;57.196;-2.100;2022-12-01T03:57:35;7.37;89.84
22069;DHT22;13887;57.196;-2.100;2022-12-01T04:00:04;7.37;89.83
22069;DHT22;13887;57.196;-2.100;2022-12-01T04:02:38;7.37;89.94
22069;DHT22;13887;57.196;-2.100;2022-12-01T04:05:06;7.32;90.02
22069;DHT22;13887;57.196;-2.100;2022-12-01T04:07:35;7.33;90.08
22069;DHT22;13887;57.196;-2.100;2022-12-01T04:10:03;7.35;90.02
22069;DHT22;13887;57.196;-2.100;2022-12-01T04:12:31;7.34;90.02
22069;DHT22;13887;57.196;-2.100;2022-12-01T04:15:11;7.37;89.99
22069;DHT22;13887;57.196;-2.100;2022-12-01T04:17:41;7.35;90.11
22069;DHT22;13887;57.196;-2.100;2022-12-01T04:20:13;7.34;90.18
22069;DHT22;13887;57.196;-2.100;2022-12-01T04:22:40;7.37;90.17
22069;DHT22;13887;57.196;-2.100;2022-12-01T04:25:08;7.38;90.09
22069;DHT22;13887;57.196;-2.100;2022-12-01T04:27:36;7.38;90.12
22069;DHT22;13887;57.196;-2.100;2022-12-01T04:30:06;7.39;90.14
22069;DHT22;13887;57.196;-2.100;2022-12-01T04:32:40;7.40;90.06
22069;DHT22;13887;57.196;-2.100;2022-12-01T04:35:09;7.38;90.16
22069;DHT22;13887;57.196;-2.100;2022-12-01T04:37:39;7.35;90.21
22069;DHT22;13887;57.196;-2.100;2022-12-01T04:40:07;7.38;90.34
22069;DHT22;13887;57.196;-2.100;2022-12-01T04:42:34;7.38;90.28
22069;DHT22;13887;57.196;-2.100;2022-12-01T04:45:00;7.39;90.28
22069;DHT22;13887;57.196;-2.100;2022-12-01T04:47:27;7.37;90.37
22069;DHT22;13887;57.196;-2.100;2022-12-01T04:49:54;7.34;90.50
22069;DHT22;13887;57.196;-2.100;2022-12-01T04:52:21;7.38;90.47
22069;DHT22;13887;57.196;-2.100;2022-12-01T04:54:48;7.35;90.47
22069;DHT22;13887;57.196;-2.100;2022-12-01T04:57:15;7.37;90.52
22069;DHT22;13887;57.196;-2.100;2022-12-01T04:59:42;7.41;90.33
22069;DHT22;13887;57.196;-2.100;2022-12-01T05:02:08;7.40;90.41
22069;DHT22;13887;57.196;-2.100;2022-12-01T05:04:35;7.39;90.43
22069;DHT22;13887;57.196;-2.100;2022-12-01T05:07:05;7.41;90.42
22069;DHT22;13887;57.196;-2.100;2022-12-01T05:09:32;7.40;90.46
22069;DHT22;13887;57.196;-2.100;2022-12-01T05:11:59;7.41;90.45
22069;DHT22;13887;57.196;-2.100;2022-12-01T05:14:26;7.40;90.57
22069;DHT22;13887;57.196;-2.100;2022-12-01T05:16:52;7.40;90.47
22069;DHT22;13887;57.196;-2.100;2022-12-01T05:19:20;7.40;90.55
22069;DHT22;13887;57.196;-2.100;2022-12-01T05:22:06;7.40;90.56
22069;DHT22;13887;57.196;-2.100;2022-12-01T05:24:33;7.40;90.63
22069;DHT22;13887;57.196;-2.100;2022-12-01T05:27:00;7.39;90.57
22069;DHT22;13887;57.196;-2.100;2022-12-01T05:29:26;7.42;90.50
22069;DHT22;13887;57.196;-2.100;2022-12-01T05:31:53;7.42;90.63
22069;DHT22;13887;57.196;-2.100;2022-12-01T05:34:20;7.41;90.63
22069;DHT22;13887;57.196;-2.100;2022-12-01T05:36:47;7.42;90.63
22069;DHT22;13887;57.196;-2.100;2022-12-01T05:39:14;7.41;90.60
22069;DHT22;13887;57.196;-2.100;2022-12-01T05:41:41;7.42;90.69
22069;DHT22;13887;57.196;-2.100;2022-12-01T05:44:08;7.42;90.66
22069;DHT22;13887;57.196;-2.100;2022-12-01T05:46:35;7.40;90.72
22069;DHT22;13887;57.196;-2.100;2022-12-01T05:49:01;7.41;90.67
22069;DHT22;13887;57.196;-2.100;2022-12-01T05:51:28;7.42;90.59
22069;DHT22;13887;57.196;-2.100;2022-12-01T05:53:58;7.43;90.63
22069;DHT22;13887;57.196;-2.100;2022-12-01T05:56:25;7.41;90.69
22069;DHT22;13887;57.196;-2.100;2022-12-01T05:58:52;7.42;90.63
22069;DHT22;13887;57.196;-2.100;2022-12-01T06:01:19;7.43;90.71
22069;DHT22;13887;57.196;-2.100;2022-12-01T06:03:46;7.41;90.75
22069;DHT22;13887;57.196;-2.100;2022-12-01T06:06:13;7.41;90.79
22069;DHT22;13887;57.196;-2.100;2022-12-01T06:08:40;7.42;90.74
22069;DHT22;13887;57.196;-2.100;2022-12-01T06:11:06;7.44;90.63
22069;DHT22;13887;57.196;-2.100;2022-12-01T06:13:33;7.43;90.66
22069;DHT22;13887;57.196;-2.100;2022-12-01T06:16:02;7.44;90.70
22069;DHT22;13887;57.196;-2.100;2022-12-01T06:18:31;7.44;90.68
22069;DHT22;13887;57.196;-2.100;2022-12-01T06:20:59;7.45;90.63
22069;DHT22;13887;57.196;-2.100;2022-12-01T06:23:26;7.43;90.74
22069;DHT22;13887;57.196;-2.100;2022-12-01T06:25:57;7.43;90.72
22069;DHT22;13887;57.196;-2.100;2022-12-01T06:28:24;7.43;90.75
22069;DHT22;13887;57.196;-2.100;2022-12-01T06:30:51;7.44;90.79
22069;DHT22;13887;57.196;-2.100;2022-12-01T06:33:23;7.44;90.74
22069;DHT22;13887;57.196;-2.100;2022-12-01T06:36:03;7.46;90.77
22069;DHT22;13887;57.196;-2.100;2022-12-01T06:38:32;7.47;90.73
22069;DHT22;13887;57.196;-2.100;2022-12-01T06:41:00;7.46;90.76
22069;DHT22;13887;57.196;-2.100;2022-12-01T06:43:27;7.45;90.77
22069;DHT22;13887;57.196;-2.100;2022-12-01T06:45:54;7.45;90.83
22069;DHT22;13887;57.196;-2.100;2022-12-01T06:48:28;7.46;90.80
22069;DHT22;13887;57.196;-2.100;2022-12-01T06:50:58;7.46;90.89
22069;DHT22;13887;57.196;-2.100;2022-12-01T06:53:26;7.47;90.83
22069;DHT22;13887;57.196;-2.100;2022-12-01T06:56:02;7.49;90.76
22069;DHT22;13887;57.196;-2.100;2022-12-01T06:58:30;7.46;90.82
22069;DHT22;13887;57.196;-2.100;2022-12-01T07:00:57;7.47;90.86
22069;DHT22;13887;57.196;-2.100;2022-12-01T07:03:25;7.47;90.81
22069;DHT22;13887;57.196;-2.100;2022-12-01T07:05:56;7.46;90.94
22069;DHT22;13887;57.196;-2.100;2022-12-01T07:08:25;7.47;90.92
22069;DHT22;13887;57.196;-2.100;2022-12-01T07:11:04;7.48;90.89
22069;DHT22;13887;57.196;-2.100;2022-12-01T07:13:32;7.47;90.97
22069;DHT22;13887;57.196;-2.100;2022-12-01T07:16:00;7.48;90.96
22069;DHT22;13887;57.196;-2.100;2022-12-01T07:18:29;7.47;90.89
22069;DHT22;13887;57.196;-2.100;2022-12-01T07:21:00;7.53;90.77
22069;DHT22;13887;57.196;-2.100;2022-12-01T07:23:27;7.48;90.85
22069;DHT22;13887;57.196;-2.100;2022-12-01T07:26:06;7.48;90.87
22069;DHT22;13887;57.196;-2.100;2022-12-01T07:28:33;7.52;90.82
22069;DHT22;13887;57.196;-2.100;2022-12-01T07:33:28;7.52;90.79
22069;DHT22;13887;57.196;-2.100;2022-12-01T07:35:54;7.50;90.83
22069;DHT22;13887;57.196;-2.100;2022-12-01T07:38:21;7.50;90.92
22069;DHT22;13887;57.196;-2.100;2022-12-01T07:40:48;7.50;90.92
22069;DHT22;13887;57.196;-2.100;2022-12-01T07:43:15;7.50;91.01
22069;DHT22;13887;57.196;-2.100;2022-12-01T07:45:42;7.49;90.95
22069;DHT22;13887;57.196;-2.100;2022-12-01T07:48:09;7.48;91.10
22069;DHT22;13887;57.196;-2.100;2022-12-01T07:50:36;7.49;91.11
22069;DHT22;13887;57.196;-2.100;2022-12-01T07:53:03;7.52;91.01
22069;DHT22;13887;57.196;-2.100;2022-12-01T07:55:29;7.53;90.95
22069;DHT22;13887;57.196;-2.100;2022-12-01T07:57:59;7.52;91.00
22069;DHT22;13887;57.196;-2.100;2022-12-01T08:00:26;7.50;91.02
22069;DHT22;13887;57.196;-2.100;2022-12-01T08:02:53;7.52;91.03
22069;DHT22;13887;57.196;-2.100;2022-12-01T08:05:20;7.54;93.29
22069;DHT22;13887;57.196;-2.100;2022-12-01T08:07:47;7.49;92.59
22069;DHT22;13887;57.196;-2.100;2022-12-01T08:10:14;7.50;92.18
22069;DHT22;13887;57.196;-2.100;2022-12-01T08:12:41;7.55;91.73
22069;DHT22;13887;57.196;-2.100;2022-12-01T08:15:08;7.55;91.58
22069;DHT22;13887;57.196;-2.100;2022-12-01T08:17:35;7.54;91.59
22069;DHT22;13887;57.196;-2.100;2022-12-01T08:20:02;7.56;91.40
22069;DHT22;13887;57.196;-2.100;2022-12-01T08:22:29;7.55;91.39
22069;DHT22;13887;57.196;-2.100;2022-12-01T08:24:56;7.57;91.33
22069;DHT22;13887;57.196;-2.100;2022-12-01T08:27:22;7.57;91.29
22069;DHT22;13887;57.196;-2.100;2022-12-01T08:29:49;7.56;91.24
22069;DHT22;13887;57.196;-2.100;2022-12-01T08:32:17;7.55;91.25
22069;DHT22;13887;57.196;-2.100;2022-12-01T08:34:44;7.58;91.11
22069;DHT22;13887;57.196;-2.100;2022-12-01T08:37:18;7.56;91.18
22069;DHT22;13887;57.196;-2.100;2022-12-01T08:39:45;7.56;91.22
22069;DHT22;13887;57.196;-2.100;2022-12-01T08:42:12;7.57;91.22
22069;DHT22;13887;57.196;-2.100;2022-12-01T08:44:39;7.57;91.20
22069;DHT22;13887;57.196;-2.100;2022-12-01T08:47:06;7.56;91.24
22069;DHT22;13887;57.196;-2.100;2022-12-01T08:49:34;7.57;91.25
22069;DHT22;13887;57.196;-2.100;2022-12-01T08:52:00;7.56;91.33
22069;DHT22;13887;57.196;-2.100;2022-12-01T08:54:27;7.58;91.20
22069;DHT22;13887;57.196;-2.100;2022-12-01T08:56:54;7.56;91.33
22069;DHT22;13887;57.196;-2.100;2022-12-01T08:59:21;7.57;91.23
22069;DHT22;13887;57.196;-2.100;2022-12-01T09:01:48;7.56;91.34
22069;DHT22;13887;57.196;-2.100;2022-12-01T09:04:25;7.58;91.23
22069;DHT22;13887;57.196;-2.100;2022-12-01T09:06:54;7.57;91.25
22069;DHT22;13887;57.196;-2.100;2022-12-01T09:09:24;7.60;91.15
22069;DHT22;13887;57.196;-2.100;2022-12-01T09:11:51;7.58;91.20
22069;DHT22;13887;57.196;-2.100;2022-12-01T09:14:19;7.56;91.25
22069;DHT22;13887;57.196;-2.100;2022-12-01T09:16:47;7.57;91.27
22069;DHT22;13887;57.196;-2.100;2022-12-01T09:19:17;7.58;91.25
22069;DHT22;13887;57.196;-2.100;2022-12-01T09:21:51;7.58;91.28
22069;DHT22;13887;57.196;-2.100;2022-12-01T09:24:17;7.57;91.24
22069;DHT22;13887;57.196;-2.100;2022-12-01T09:26:44;7.59;91.27
22069;DHT22;13887;57.196;-2.100;2022-12-01T09:29:13;7.60;91.25
22069;DHT22;13887;57.196;-2.100;2022-12-01T09:31:41;7.60;91.23
22069;DHT22;13887;57.196;-2.100;2022-12-01T09:34:17;7.59;91.26
22069;DHT22;13887;57.196;-2.100;2022-12-01T09:36:45;7.59;91.30
22069;DHT22;13887;57.196;-2.100;2022-12-01T09:39:16;7.60;91.24
22069;DHT22;13887;57.196;-2.100;2022-12-01T09:41:55;7.61;91.29
22069;DHT22;13887;57.196;-2.100;2022-12-01T09:44:50;7.60;91.34
22069;DHT22;13887;57.196;-2.100;2022-12-01T09:47:34;7.62;91.24
22069;DHT22;13887;57.196;-2.100;2022-12-01T09:50:11;7.61;91.35
22069;DHT22;13887;57.196;-2.100;2022-12-01T09:52:42;7.62;91.36
22069;DHT22;13887;57.196;-2.100;2022-12-01T09:55:13;7.62;91.34
22069;DHT22;13887;57.196;-2.100;2022-12-01T09:57:41;7.63;91.42
22069;DHT22;13887;57.196;-2.100;2022-12-01T10:00:12;7.63;91.29
22069;DHT22;13887;57.196;-2.100;2022-12-01T10:02:55;7.65;91.34
22069;DHT22;13887;57.196;-2.100;2022-12-01T10:05:29;7.63;91.45
22069;DHT22;13887;57.196;-2.100;2022-12-01T10:08:01;7.64;91.29
22069;DHT22;13887;57.196;-2.100;2022-12-01T10:10:33;7.62;91.37
22069;DHT22;13887;57.196;-2.100;2022-12-01T10:13:00;7.64;91.47
22069;DHT22;13887;57.196;-2.100;2022-12-01T10:15:35;7.65;91.44
22069;DHT22;13887;57.196;-2.100;2022-12-01T10:18:09;7.64;91.40
22069;DHT22;13887;57.196;-2.100;2022-12-01T10:26:31;7.68;91.39
22069;DHT22;13887;57.196;-2.100;2022-12-01T10:31:52;7.67;91.56
22069;DHT22;13887;57.196;-2.100;2022-12-01T10:34:27;7.70;91.39
22069;DHT22;13887;57.196;-2.100;2022-12-01T10:36:56;7.69;91.48
22069;DHT22;13887;57.196;-2.100;2022-12-01T10:42:07;7.70;91.67
22069;DHT22;13887;57.196;-2.100;2022-12-01T10:44:36;7.72;91.66
22069;DHT22;13887;57.196;-2.100;2022-12-01T10:47:11;7.70;91.66
22069;DHT22;13887;57.196;-2.100;2022-12-01T10:49:41;7.72;91.69
22069;DHT22;13887;57.196;-2.100;2022-12-01T10:54:53;7.72;91.76
22069;DHT22;13887;57.196;-2.100;2022-12-01T10:57:20;7.74;91.79
22069;DHT22;13887;57.196;-2.100;2022-12-01T11:02:18;7.74;91.85
22069;DHT22;13887;57.196;-2.100;2022-12-01T11:05:06;7.74;91.82
22069;DHT22;13887;57.196;-2.100;2022-12-01T11:07:47;7.74;91.82
22069;DHT22;13887;57.196;-2.100;2022-12-01T11:10:18;7.74;91.87
22069;DHT22;13887;57.196;-2.100;2022-12-01T11:15:27;7.76;91.68
22069;DHT22;13887;57.196;-2.100;2022-12-01T11:18:01;7.75;91.76
22069;DHT22;13887;57.196;-2.100;2022-12-01T11:20:33;7.75;91.85
22069;DHT22;13887;57.196;-2.100;2022-12-01T11:28:32;7.78;92.07
22069;DHT22;13887;57.196;-2.100;2022-12-01T11:31:06;7.81;91.92
22069;DHT22;13887;57.196;-2.100;2022-12-01T11:33:52;7.79;91.96
22069;DHT22;13887;57.196;-2.100;2022-12-01T11:36:36;7.79;91.97
22069;DHT22;13887;57.196;-2.100;2022-12-01T11:39:30;7.82;92.21
22069;DHT22;13887;57.196;-2.100;2022-12-01T11:42:22;7.81;92.16
22069;DHT22;13887;57.196;-2.100;2022-12-01T11:47:31;7.85;92.12
22069;DHT22;13887;57.196;-2.100;2022-12-01T11:50:21;7.84;92.22
22069;DHT22;13887;57.196;-2.100;2022-12-01T11:52:49;7.83;92.21
22069;DHT22;13887;57.196;-2.100;2022-12-01T11:57:43;7.84;92.27
22069;DHT22;13887;57.196;-2.100;2022-12-01T12:26:55;7.92;92.27
22069;DHT22;13887;57.196;-2.100;2022-12-01T12:51:06;7.94;92.31
22069;DHT22;13887;57.196;-2.100;2022-12-01T12:53:42;7.93;92.46
22069;DHT22;13887;57.196;-2.100;2022-12-01T12:56:14;7.94;92.54
22069;DHT22;13887;57.196;-2.100;2022-12-01T12:59:02;7.97;92.50
22069;DHT22;13887;57.196;-2.100;2022-12-01T13:01:35;7.94;92.59
22069;DHT22;13887;57.196;-2.100;2022-12-01T13:04:08;7.96;92.63
22069;DHT22;13887;57.196;-2.100;2022-12-01T13:06:47;7.97;92.63
22069;DHT22;13887;57.196;-2.100;2022-12-01T13:09:24;7.96;92.50
22069;DHT22;13887;57.196;-2.100;2022-12-01T13:12:08;7.98;92.57
22069;DHT22;13887;57.196;-2.100;2022-12-01T13:14:51;7.96;92.67
22069;DHT22;13887;57.196;-2.100;2022-12-01T13:17:34;7.98;92.59
22069;DHT22;13887;57.196;-2.100;2022-12-01T13:20:03;7.98;92.53
22069;DHT22;13887;57.196;-2.100;2022-12-01T13:22:33;7.97;92.59
22069;DHT22;13887;57.196;-2.100;2022-12-01T13:25:02;7.99;92.63
22069;DHT22;13887;57.196;-2.100;2022-12-01T13:27:33;7.99;92.58
22069;DHT22;13887;57.196;-2.100;2022-12-01T13:30:01;7.99;92.79
22069;DHT22;13887;57.196;-2.100;2022-12-01T13:32:32;7.98;92.76
22069;DHT22;13887;57.196;-2.100;2022-12-01T13:35:01;8.00;92.62
22069;DHT22;13887;57.196;-2.100;2022-12-01T13:37:31;8.00;92.62
22069;DHT22;13887;57.196;-2.100;2022-12-01T13:43:03;8.01;92.75
22069;DHT22;13887;57.196;-2.100;2022-12-01T13:45:37;8.06;92.36
22069;DHT22;13887;57.196;-2.100;2022-12-01T13:48:28;8.03;92.69
22069;DHT22;13887;57.196;-2.100;2022-12-01T13:51:09;8.03;92.60
22069;DHT22;13887;57.196;-2.100;2022-12-01T13:53:37;8.03;92.66
22069;DHT22;13887;57.196;-2.100;2022-12-01T13:58:49;8.06;92.46
22069;DHT22;13887;57.196;-2.100;2022-12-01T14:04:21;8.06;92.77
22069;DHT22;13887;57.196;-2.100;2022-12-01T14:07:19;8.03;92.77
22069;DHT22;13887;57.196;-2.100;2022-12-01T14:09:49;8.04;92.74
22069;DHT22;13887;57.196;-2.100;2022-12-01T14:12:28;8.04;92.85
22069;DHT22;13887;57.196;-2.100;2022-12-01T14:15:21;8.06;92.82
22069;DHT22;13887;57.196;-2.100;2022-12-01T14:18:34;8.08;92.71
22069;DHT22;13887;57.196;-2.100;2022-12-01T14:21:06;8.07;92.75
22069;DHT22;13887;57.196;-2.100;2022-12-01T14:23:57;8.07;92.75
22069;DHT22;13887;57.196;-2.100;2022-12-01T14:26:26;8.08;92.66
22069;DHT22;13887;57.196;-2.100;2022-12-01T14:31:22;8.07;92.76
22069;DHT22;13887;57.196;-2.100;2022-12-01T14:33:52;8.09;92.67
22069;DHT22;13887;57.196;-2.100;2022-12-01T14:38:52;8.07;92.72
22069;DHT22;13887;57.196;-2.100;2022-12-01T14:41:27;8.07;92.79
22069;DHT22;13887;57.196;-2.100;2022-12-01T14:43:58;8.07;92.79
22069;DHT22;13887;57.196;-2.100;2022-12-01T14:46:59;8.09;92.78
22069;DHT22;13887;57.196;-2.100;2022-12-01T14:49:36;8.09;92.75
22069;DHT22;13887;57.196;-2.100;2022-12-01T14:52:05;8.09;92.73
22069;DHT22;13887;57.196;-2.100;2022-12-01T14:54:41;8.12;92.68
22069;DHT22;13887;57.196;-2.100;2022-12-01T14:57:09;8.08;92.74
22069;DHT22;13887;57.196;-2.100;2022-12-01T14:59:43;8.11;92.70
22069;DHT22;13887;57.196;-2.100;2022-12-01T15:02:10;8.14;92.63
22069;DHT22;13887;57.196;-2.100;2022-12-01T15:05:07;8.11;92.70
22069;DHT22;13887;57.196;-2.100;2022-12-01T15:07:40;8.11;92.73
22069;DHT22;13887;57.196;-2.100;2022-12-01T15:10:30;8.11;92.72
22069;DHT22;13887;57.196;-2.100;2022-12-01T15:13:48;8.12;92.71
22069;DHT22;13887;57.196;-2.100;2022-12-01T15:16:19;8.12;92.61
22069;DHT22;13887;57.196;-2.100;2022-12-01T15:18:47;8.12;92.67
22069;DHT22;13887;57.196;-2.100;2022-12-01T15:23:59;8.11;92.69
22069;DHT22;13887;57.196;-2.100;2022-12-01T15:26:44;8.14;92.52
22069;DHT22;13887;57.196;-2.100;2022-12-01T15:29:23;8.15;92.56
22069;DHT22;13887;57.196;-2.100;2022-12-01T15:31:59;8.14;92.48
22069;DHT22;13887;57.196;-2.100;2022-12-01T15:34:34;8.14;92.46
22069;DHT22;13887;57.196;-2.100;2022-12-01T15:37:03;8.13;92.59
22069;DHT22;13887;57.196;-2.100;2022-12-01T15:39:36;8.15;92.46
22069;DHT22;13887;57.196;-2.100;2022-12-01T15:42:05;8.11;92.50
22069;DHT22;13887;57.196;-2.100;2022-12-01T15:44:34;8.14;92.43
22069;DHT22;13887;57.196;-2.100;2022-12-01T15:49:56;8.12;92.57
22069;DHT22;13887;57.196;-2.100;2022-12-01T15:52:23;8.11;92.56
22069;DHT22;13887;57.196;-2.100;2022-12-01T15:54:50;8.12;92.50
22069;DHT22;13887;57.196;-2.100;2022-12-01T15:57:19;8.11;92.53
22069;DHT22;13887;57.196;-2.100;2022-12-01T15:59:52;8.12;92.40
22069;DHT22;13887;57.196;-2.100;2022-12-01T16:02:31;8.12;92.38
22069;DHT22;13887;57.196;-2.100;2022-12-01T16:07:35;8.13;92.31
22069;DHT22;13887;57.196;-2.100;2022-12-01T16:10:32;8.14;92.26
22069;DHT22;13887;57.196;-2.100;2022-12-01T16:16:19;8.12;92.31
22069;DHT22;13887;57.196;-2.100;2022-12-01T16:21:40;8.11;92.40
22069;DHT22;13887;57.196;-2.100;2022-12-01T16:24:13;8.13;92.33
22069;DHT22;13887;57.196;-2.100;2022-12-01T16:26:59;8.12;92.36
22069;DHT22;13887;57.196;-2.100;2022-12-01T16:29:28;8.12;92.31
22069;DHT22;13887;57.196;-2.100;2022-12-01T16:32:09;8.11;92.30
22069;DHT22;13887;57.196;-2.100;2022-12-01T16:34:47;8.11;92.29
22069;DHT22;13887;57.196;-2.100;2022-12-01T16:37:14;8.13;92.18
22069;DHT22;13887;57.196;-2.100;2022-12-01T16:39:42;8.14;92.14
22069;DHT22;13887;57.196;-2.100;2022-12-01T16:42:18;8.14;92.08
22069;DHT22;13887;57.196;-2.100;2022-12-01T16:44:47;8.14;92.09
22069;DHT22;13887;57.196;-2.100;2022-12-01T16:47:23;8.14;92.02
22069;DHT22;13887;57.196;-2.100;2022-12-01T16:49:51;8.15;91.98
22069;DHT22;13887;57.196;-2.100;2022-12-01T16:52:18;8.14;92.05
22069;DHT22;13887;57.196;-2.100;2022-12-01T16:55:40;8.14;92.08
22069;DHT22;13887;57.196;-2.100;2022-12-01T16:58:07;8.13;92.11
22069;DHT22;13887;57.196;-2.100;2022-12-01T17:00:34;8.12;92.12
22069;DHT22;13887;57.196;-2.100;2022-12-01T17:03:02;8.14;92.12
22069;DHT22;13887;57.196;-2.100;2022-12-01T17:05:30;8.12;92.18
22069;DHT22;13887;57.196;-2.100;2022-12-01T17:07:57;8.13;92.15
22069;DHT22;13887;57.196;-2.100;2022-12-01T17:10:24;8.14;92.10
22069;DHT22;13887;57.196;-2.100;2022-12-01T17:12:51;8.15;92.10
22069;DHT22;13887;57.196;-2.100;2022-12-01T17:15:18;8.15;92.19
22069;DHT22;13887;57.196;-2.100;2022-12-01T17:17:45;8.15;92.15
22069;DHT22;13887;57.196;-2.100;2022-12-01T17:20:13;8.14;92.28
22069;DHT22;13887;57.196;-2.100;2022-12-01T17:22:40;8.14;92.24
22069;DHT22;13887;57.196;-2.100;2022-12-01T17:25:07;8.17;92.16
22069;DHT22;13887;57.196;-2.100;2022-12-01T17:27:38;8.15;92.22
22069;DHT22;13887;57.196;-2.100;2022-12-01T17:30:06;8.17;92.18
22069;DHT22;13887;57.196;-2.100;2022-12-01T17:32:33;8.16;92.25
22069;DHT22;13887;57.196;-2.100;2022-12-01T17:34:59;8.17;92.23
22069;DHT22;13887;57.196;-2.100;2022-12-01T17:37:26;8.16;92.23
22069;DHT22;13887;57.196;-2.100;2022-12-01T17:39:53;8.17;92.22
22069;DHT22;13887;57.196;-2.100;2022-12-01T17:42:21;8.20;92.11
22069;DHT22;13887;57.196;-2.100;2022-12-01T17:44:47;8.06;93.95
22069;DHT22;13887;57.196;-2.100;2022-12-01T17:47:15;8.13;93.25
22069;DHT22;13887;57.196;-2.100;2022-12-01T17:49:41;8.15;93.05
22069;DHT22;13887;57.196;-2.100;2022-12-01T17:52:08;8.17;92.88
22069;DHT22;13887;57.196;-2.100;2022-12-01T17:54:35;8.17;92.82
22069;DHT22;13887;57.196;-2.100;2022-12-01T17:57:02;8.18;92.63
22069;DHT22;13887;57.196;-2.100;2022-12-01T17:59:30;8.19;92.57
22069;DHT22;13887;57.196;-2.100;2022-12-01T18:01:58;8.21;92.42
22069;DHT22;13887;57.196;-2.100;2022-12-01T18:04:25;8.19;92.50
22069;DHT22;13887;57.196;-2.100;2022-12-01T18:06:51;8.20;92.45
22069;DHT22;13887;57.196;-2.100;2022-12-01T18:09:20;8.20;92.47
22069;DHT22;13887;57.196;-2.100;2022-12-01T18:11:47;8.20;92.39
22069;DHT22;13887;57.196;-2.100;2022-12-01T18:14:14;8.19;92.52
22069;DHT22;13887;57.196;-2.100;2022-12-01T18:16:44;8.18;92.46
22069;DHT22;13887;57.196;-2.100;2022-12-01T18:19:11;8.20;92.50
22069;DHT22;13887;57.196;-2.100;2022-12-01T18:21:39;8.18;92.51
22069;DHT22;13887;57.196;-2.100;2022-12-01T18:24:07;8.19;92.47